Florencia — IBPD — position and weather

sailwx.info

Track history (hours):
 
Tides and Currents Weather Stations Pressure Air Temp Water Temp Dewpoint Dewpoint Depression Visibility Wind Speed Wind Dir Waves Ship Positions

Florencia

Last reported at 2016-Feb-13 06:33 UTC. Time now 2016-Feb-13 12:48 UTC.
Position N 37°46' E 015°22'.

Length 186 m; draft 6 m.

Type: Passenger vessel. MMSI: 247105900.

Date/timePositionNaut miles runAvg speedWind from/ knotsBaromVisibWave heightAir tempDewpointWater temp
2016-Feb-13 06:33N 37°46' E 015°22'2121.7
2016-Feb-13 05:33N 38°05' E 015°34'1818.0
2016-Feb-13 04:33N 38°23' E 015°39'2019.4
2016-Feb-13 03:32N 38°41' E 015°28'2421.1
2016-Feb-13 02:23N 39°03' E 015°15'8121.2
2016-Feb-12 22:33N 40°15' E 014°28'2120.9
2016-Feb-12 21:33N 40°34' E 014°17'1615.4
2016-Feb-12 20:31N 40°50' E 014°16'0 0.0
2016-Feb-12 19:33N 40°50' E 014°16'0 0.0
2016-Feb-12 12:07N 40°50' E 014°16'0 0.0
2016-Feb-12 11:33N 40°50' E 014°16'13212.0
2016-Feb-12 00:33N 38°50' E 015°25'2222.4
2016-Feb-11 23:33N 38°29' E 015°37'1717.0
2016-Feb-11 22:33N 38°12' E 015°37'2020.4
2016-Feb-11 21:33N 37°53' E 015°28'12 0.8
2016-Feb-11 07:24N 37°43' E 015°21'1821.1
2016-Feb-11 06:33N 37°59' E 015°30'1918.9
2016-Feb-11 05:33N 38°16' E 015°40'2019.6
2016-Feb-11 04:33N 38°35' E 015°32'2019.6
2016-Feb-11 03:32N 38°54' E 015°24'12818.4
2016-Feb-10 20:33N 40°50' E 014°16'0 0.0
2016-Feb-10 19:34N 40°50' E 014°16'0 0.0
2016-Feb-10 18:33N 40°50' E 014°16'0 0.0
2016-Feb-10 17:33N 40°50' E 014°16'0 0.0
2016-Feb-10 16:34N 40°50' E 014°16'0 0.0
2016-Feb-10 15:34N 40°50' E 014°16'0 0.0
2016-Feb-10 14:34N 40°50' E 014°16'0 0.0
2016-Feb-10 13:33N 40°50' E 014°16'0 0.0
2016-Feb-10 12:34N 40°50' E 014°16'1 0.6
2016-Feb-10 11:33N 40°50' E 014°16'12817.5
2016-Feb-10 04:13N 38°56' E 015°33'1421.4
2016-Feb-10 03:33N 38°42' E 015°37'2221.3
2016-Feb-10 02:31N 38°21' E 015°42'1819.1
2016-Feb-10 01:33N 38°03' E 015°34'2121.1
2016-Feb-10 00:33N 37°44' E 015°23'4 0.2
2016-Feb-09 06:22N 37°41' E 015°20'1822.4
2016-Feb-09 05:33N 37°58' E 015°29'2019.9
2016-Feb-09 04:33N 38°16' E 015°40'2120.6
2016-Feb-09 03:33N 38°35' E 015°30'2221.4
2016-Feb-09 02:32N 38°55' E 015°19'3 0.1
2016-Feb-08 00:32N 38°53' E 015°22'2222.6
2016-Feb-07 23:33N 38°33' E 015°34'1919.2
2016-Feb-07 22:34N 38°15' E 015°39'2020.1
2016-Feb-07 21:33N 37°56' E 015°29'2221.9
2016-Feb-07 20:32N 37°36' E 015°17'1 0.0
2016-Feb-07 06:33N 37°35' E 015°17'2222.3
2016-Feb-07 05:33N 37°56' E 015°28'2120.6
2016-Feb-07 04:33N 38°15' E 015°38'1918.7
2016-Feb-07 03:33N 38°33' E 015°31'11722.0
2016-Feb-06 22:14N 40°19' E 014°26'1522.5
2016-Feb-06 21:33N 40°32' E 014°18'1818.0
2016-Feb-06 20:33N 40°50' E 014°16'0 0.0
2016-Feb-06 13:31N 40°50' E 014°16'0 0.0
2016-Feb-06 12:33N 40°50' E 014°16'0 0.0
2016-Feb-06 11:33N 40°50' E 014°16'14012.3
2016-Feb-06 00:11N 38°42' E 015°28'1521.8
2016-Feb-05 23:29N 38°28' E 015°37'1717.3
2016-Feb-05 22:31N 38°11' E 015°37'171 5.4
2016-Feb-04 14:30N 40°50' E 014°16'0 0.0
2016-Feb-04 13:33N 40°50' E 014°16'0 0.0
2016-Feb-04 12:32N 40°50' E 014°16'  
Track history (hours):
 
Tides and Currents Weather Stations Pressure Air Temp Water Temp Dewpoint Dewpoint Depression Visibility Wind Speed Wind Dir Waves Ship Positions

Florencia

Last reported at 2016-Feb-13 06:33 UTC. Time now 2016-Feb-13 12:48 UTC.
Position N 37°46' E 015°22'.

Length 186 m; draft 6 m.

Type: Passenger vessel. MMSI: 247105900.

Date/timePositionNaut miles runAvg speedWind from/ knotsBaromVisibWave heightAir tempDewpointWater temp
2016-Feb-13 06:33N 37°46' E 015°22'2121.7
2016-Feb-13 05:33N 38°05' E 015°34'1818.0
2016-Feb-13 04:33N 38°23' E 015°39'2019.4
2016-Feb-13 03:32N 38°41' E 015°28'2421.1
2016-Feb-13 02:23N 39°03' E 015°15'8121.2
2016-Feb-12 22:33N 40°15' E 014°28'2120.9
2016-Feb-12 21:33N 40°34' E 014°17'1615.4
2016-Feb-12 20:31N 40°50' E 014°16'0 0.0
2016-Feb-12 19:33N 40°50' E 014°16'0 0.0
2016-Feb-12 12:07N 40°50' E 014°16'0 0.0
2016-Feb-12 11:33N 40°50' E 014°16'13212.0
2016-Feb-12 00:33N 38°50' E 015°25'2222.4
2016-Feb-11 23:33N 38°29' E 015°37'1717.0
2016-Feb-11 22:33N 38°12' E 015°37'2020.4
2016-Feb-11 21:33N 37°53' E 015°28'12 0.8
2016-Feb-11 07:24N 37°43' E 015°21'1821.1
2016-Feb-11 06:33N 37°59' E 015°30'1918.9
2016-Feb-11 05:33N 38°16' E 015°40'2019.6
2016-Feb-11 04:33N 38°35' E 015°32'2019.6
2016-Feb-11 03:32N 38°54' E 015°24'12818.4
2016-Feb-10 20:33N 40°50' E 014°16'0 0.0
2016-Feb-10 19:34N 40°50' E 014°16'0 0.0
2016-Feb-10 18:33N 40°50' E 014°16'0 0.0
2016-Feb-10 17:33N 40°50' E 014°16'0 0.0
2016-Feb-10 16:34N 40°50' E 014°16'0 0.0
2016-Feb-10 15:34N 40°50' E 014°16'0 0.0
2016-Feb-10 14:34N 40°50' E 014°16'0 0.0
2016-Feb-10 13:33N 40°50' E 014°16'0 0.0
2016-Feb-10 12:34N 40°50' E 014°16'1 0.6
2016-Feb-10 11:33N 40°50' E 014°16'12817.5
2016-Feb-10 04:13N 38°56' E 015°33'1421.4
2016-Feb-10 03:33N 38°42' E 015°37'2221.3
2016-Feb-10 02:31N 38°21' E 015°42'1819.1
2016-Feb-10 01:33N 38°03' E 015°34'2121.1
2016-Feb-10 00:33N 37°44' E 015°23'4 0.2
2016-Feb-09 06:22N 37°41' E 015°20'1822.4
2016-Feb-09 05:33N 37°58' E 015°29'2019.9
2016-Feb-09 04:33N 38°16' E 015°40'2120.6
2016-Feb-09 03:33N 38°35' E 015°30'2221.4
2016-Feb-09 02:32N 38°55' E 015°19'3 0.1
2016-Feb-08 00:32N 38°53' E 015°22'2222.6
2016-Feb-07 23:33N 38°33' E 015°34'1919.2
2016-Feb-07 22:34N 38°15' E 015°39'2020.1
2016-Feb-07 21:33N 37°56' E 015°29'2221.9
2016-Feb-07 20:32N 37°36' E 015°17'1 0.0
2016-Feb-07 06:33N 37°35' E 015°17'2222.3
2016-Feb-07 05:33N 37°56' E 015°28'2120.6
2016-Feb-07 04:33N 38°15' E 015°38'1918.7
2016-Feb-07 03:33N 38°33' E 015°31'11722.0
2016-Feb-06 22:14N 40°19' E 014°26'1522.5
2016-Feb-06 21:33N 40°32' E 014°18'1818.0
2016-Feb-06 20:33N 40°50' E 014°16'0 0.0
2016-Feb-06 13:31N 40°50' E 014°16'0 0.0
2016-Feb-06 12:33N 40°50' E 014°16'0 0.0
2016-Feb-06 11:33N 40°50' E 014°16'14012.3
2016-Feb-06 00:11N 38°42' E 015°28'1521.8
2016-Feb-05 23:29N 38°28' E 015°37'1717.3
2016-Feb-05 22:31N 38°11' E 015°37'171 5.4
2016-Feb-04 14:30N 40°50' E 014°16'0 0.0
2016-Feb-04 13:33N 40°50' E 014°16'0 0.0
2016-Feb-04 12:32N 40°50' E 014°16'  

Dump ship's entire track history